sensor_id;sensor_type;location;lat;lon;timestamp;pressure;altitude;pressure_sealevel;temperature;humidity
6835;BME280;3455;42.150;24.734;2022-12-04T00:01:09;66675.09;;;10.87;84.22
6835;BME280;3455;42.150;24.734;2022-12-04T00:03:37;66623.41;;;10.73;85.48
6835;BME280;3455;42.150;24.734;2022-12-04T00:06:05;66686.94;;;11.07;83.70
6835;BME280;3455;42.150;24.734;2022-12-04T00:08:32;66613.66;;;10.58;85.16
6835;BME280;3455;42.150;24.734;2022-12-04T00:10:59;66660.13;;;10.85;84.14
6835;BME280;3455;42.150;24.734;2022-12-04T00:13:26;66618.34;;;10.73;84.02
6835;BME280;3455;42.150;24.734;2022-12-04T00:15:54;66631.97;;;10.58;85.56
6835;BME280;3455;42.150;24.734;2022-12-04T00:18:21;66658.22;;;10.79;84.74
6835;BME280;3455;42.150;24.734;2022-12-04T00:20:47;66600.81;;;10.71;85.25
6835;BME280;3455;42.150;24.734;2022-12-04T00:23:14;66626.91;;;10.58;86.12
6835;BME280;3455;42.150;24.734;2022-12-04T00:25:41;66634.94;;;10.54;86.69
6835;BME280;3455;42.150;24.734;2022-12-04T00:28:13;66641.31;;;10.60;86.83
6835;BME280;3455;42.150;24.734;2022-12-04T00:30:41;66645.00;;;10.61;86.45
6835;BME280;3455;42.150;24.734;2022-12-04T00:33:09;66677.13;;;10.80;86.08
6835;BME280;3455;42.150;24.734;2022-12-04T00:35:36;66656.41;;;10.84;85.16
6835;BME280;3455;42.150;24.734;2022-12-04T00:38:03;66638.03;;;10.55;86.98
6835;BME280;3455;42.150;24.734;2022-12-04T00:40:30;66658.88;;;10.73;85.98
6835;BME280;3455;42.150;24.734;2022-12-04T00:42:56;66673.94;;;10.86;85.38
6835;BME280;3455;42.150;24.734;2022-12-04T00:45:23;66621.81;;;10.76;86.29
6835;BME280;3455;42.150;24.734;2022-12-04T00:47:50;66651.22;;;10.62;86.60
6835;BME280;3455;42.150;24.734;2022-12-04T00:50:18;66663.38;;;10.73;86.31
6835;BME280;3455;42.150;24.734;2022-12-04T00:52:44;66644.69;;;10.87;85.75
6835;BME280;3455;42.150;24.734;2022-12-04T00:55:11;66674.81;;;10.78;85.30
6835;BME280;3455;42.150;24.734;2022-12-04T00:57:38;66651.88;;;10.56;87.31
6835;BME280;3455;42.150;24.734;2022-12-04T01:00:06;66640.91;;;10.75;86.15
6835;BME280;3455;42.150;24.734;2022-12-04T01:02:33;66582.91;;;10.55;86.37
6835;BME280;3455;42.150;24.734;2022-12-04T01:05:00;66639.72;;;10.63;86.71
6835;BME280;3455;42.150;24.734;2022-12-04T01:07:28;66666.25;;;10.75;86.49
6835;BME280;3455;42.150;24.734;2022-12-04T01:09:54;66647.16;;;10.58;86.58
6835;BME280;3455;42.150;24.734;2022-12-04T01:12:21;66638.03;;;10.55;86.75
6835;BME280;3455;42.150;24.734;2022-12-04T01:14:48;66613.88;;;10.38;87.86
6835;BME280;3455;42.150;24.734;2022-12-04T01:17:15;66641.09;;;10.62;86.26
6835;BME280;3455;42.150;24.734;2022-12-04T01:19:41;66662.38;;;10.58;86.62
6835;BME280;3455;42.150;24.734;2022-12-04T01:22:08;66657.00;;;10.67;86.32
6835;BME280;3455;42.150;24.734;2022-12-04T01:24:36;66614.09;;;10.54;87.85
6835;BME280;3455;42.150;24.734;2022-12-04T01:27:03;66640.78;;;10.52;87.47
6835;BME280;3455;42.150;24.734;2022-12-04T01:29:30;66652.81;;;10.59;86.69
6835;BME280;3455;42.150;24.734;2022-12-04T01:31:56;66613.00;;;10.28;88.55
6835;BME280;3455;42.150;24.734;2022-12-04T01:34:23;66642.88;;;10.57;86.60
6835;BME280;3455;42.150;24.734;2022-12-04T01:36:50;66650.78;;;10.66;86.26
6835;BME280;3455;42.150;24.734;2022-12-04T01:39:17;66616.47;;;10.49;86.27
6835;BME280;3455;42.150;24.734;2022-12-04T01:41:45;66610.34;;;10.41;87.44
6835;BME280;3455;42.150;24.734;2022-12-04T01:44:14;66636.16;;;10.48;86.53
6835;BME280;3455;42.150;24.734;2022-12-04T01:46:43;66590.88;;;10.22;87.50
6835;BME280;3455;42.150;24.734;2022-12-04T01:49:12;66655.13;;;10.61;85.96
6835;BME280;3455;42.150;24.734;2022-12-04T01:51:41;66627.66;;;10.45;86.98
6835;BME280;3455;42.150;24.734;2022-12-04T01:54:12;66639.41;;;10.71;85.46
6835;BME280;3455;42.150;24.734;2022-12-04T01:56:45;66669.09;;;10.84;84.86
6835;BME280;3455;42.150;24.734;2022-12-04T01:59:16;66665.81;;;10.79;85.70
6835;BME280;3455;42.150;24.734;2022-12-04T02:01:54;66628.13;;;10.70;85.96
6835;BME280;3455;42.150;24.734;2022-12-04T02:04:22;66648.97;;;10.71;85.12
6835;BME280;3455;42.150;24.734;2022-12-04T02:06:49;66625.88;;;10.62;85.27
6835;BME280;3455;42.150;24.734;2022-12-04T02:09:16;66622.69;;;10.68;85.02
6835;BME280;3455;42.150;24.734;2022-12-04T02:11:51;66610.06;;;10.79;84.59
6835;BME280;3455;42.150;24.734;2022-12-04T02:14:29;66647.66;;;10.65;84.93
6835;BME280;3455;42.150;24.734;2022-12-04T02:17:03;66643.84;;;10.60;84.51
6835;BME280;3455;42.150;24.734;2022-12-04T02:19:47;66638.72;;;10.48;85.20
6835;BME280;3455;42.150;24.734;2022-12-04T02:22:28;66627.84;;;10.43;85.48
6835;BME280;3455;42.150;24.734;2022-12-04T02:24:58;66599.56;;;10.47;85.68
6835;BME280;3455;42.150;24.734;2022-12-04T02:27:54;66632.41;;;10.54;85.31
6835;BME280;3455;42.150;24.734;2022-12-04T02:30:26;66637.34;;;10.49;85.08
6835;BME280;3455;42.150;24.734;2022-12-04T02:33:00;66601.72;;;10.45;86.35
6835;BME280;3455;42.150;24.734;2022-12-04T02:35:30;66617.78;;;10.55;85.80
6835;BME280;3455;42.150;24.734;2022-12-04T02:38:03;66648.31;;;10.41;86.77
6835;BME280;3455;42.150;24.734;2022-12-04T02:40:37;66625.31;;;10.43;86.47
6835;BME280;3455;42.150;24.734;2022-12-04T02:43:11;66619.53;;;10.38;86.77
6835;BME280;3455;42.150;24.734;2022-12-04T02:45:43;66602.09;;;10.11;88.44
6835;BME280;3455;42.150;24.734;2022-12-04T02:48:14;66621.69;;;10.54;86.84
6835;BME280;3455;42.150;24.734;2022-12-04T02:50:43;66611.22;;;10.33;87.11
6835;BME280;3455;42.150;24.734;2022-12-04T02:53:15;66598.16;;;10.48;86.39
6835;BME280;3455;42.150;24.734;2022-12-04T02:55:46;66666.19;;;10.82;84.72
6835;BME280;3455;42.150;24.734;2022-12-04T02:58:20;66629.22;;;10.60;85.45
6835;BME280;3455;42.150;24.734;2022-12-04T03:00:49;66636.38;;;10.46;85.66
6835;BME280;3455;42.150;24.734;2022-12-04T03:03:22;66654.81;;;10.69;85.59
6835;BME280;3455;42.150;24.734;2022-12-04T03:05:54;66674.66;;;10.91;84.04
6835;BME280;3455;42.150;24.734;2022-12-04T03:08:27;66647.09;;;10.65;84.72
6835;BME280;3455;42.150;24.734;2022-12-04T03:10:58;66640.94;;;10.39;85.64
6835;BME280;3455;42.150;24.734;2022-12-04T03:13:30;66614.03;;;10.42;85.70
6835;BME280;3455;42.150;24.734;2022-12-04T03:16:02;66645.38;;;10.45;86.36
6835;BME280;3455;42.150;24.734;2022-12-04T03:18:33;66660.22;;;10.61;86.10
6835;BME280;3455;42.150;24.734;2022-12-04T03:21:03;66613.22;;;10.26;87.45
6835;BME280;3455;42.150;24.734;2022-12-04T03:23:34;66618.81;;;10.33;87.29
6835;BME280;3455;42.150;24.734;2022-12-04T03:26:08;66640.34;;;10.57;86.45
6835;BME280;3455;42.150;24.734;2022-12-04T03:28:46;66655.44;;;10.70;84.79
6835;BME280;3455;42.150;24.734;2022-12-04T03:31:20;66607.22;;;10.59;85.11
6835;BME280;3455;42.150;24.734;2022-12-04T03:33:49;66614.47;;;10.38;86.34
6835;BME280;3455;42.150;24.734;2022-12-04T03:36:22;66619.81;;;10.47;85.97
6835;BME280;3455;42.150;24.734;2022-12-04T03:38:54;66668.44;;;10.73;84.96
6835;BME280;3455;42.150;24.734;2022-12-04T03:41:27;66651.78;;;10.80;84.59
6835;BME280;3455;42.150;24.734;2022-12-04T03:43:59;66665.56;;;10.70;85.04
6835;BME280;3455;42.150;24.734;2022-12-04T03:46:32;66680.91;;;10.75;84.76
6835;BME280;3455;42.150;24.734;2022-12-04T03:49:08;66561.94;;;10.32;86.02
6835;BME280;3455;42.150;24.734;2022-12-04T03:51:41;66602.59;;;10.37;86.28
6835;BME280;3455;42.150;24.734;2022-12-04T03:54:13;66600.31;;;10.64;85.85
6835;BME280;3455;42.150;24.734;2022-12-04T03:56:44;66615.16;;;10.61;85.13
6835;BME280;3455;42.150;24.734;2022-12-04T03:59:16;66674.69;;;10.56;84.91
6835;BME280;3455;42.150;24.734;2022-12-04T04:01:47;66692.91;;;10.81;84.29
6835;BME280;3455;42.150;24.734;2022-12-04T04:04:18;66566.34;;;10.38;85.40
6835;BME280;3455;42.150;24.734;2022-12-04T04:06:50;66615.63;;;10.39;86.48
6835;BME280;3455;42.150;24.734;2022-12-04T04:09:21;66646.59;;;10.40;86.33
6835;BME280;3455;42.150;24.734;2022-12-04T04:11:54;66656.56;;;10.71;84.82
6835;BME280;3455;42.150;24.734;2022-12-04T04:14:27;66632.72;;;10.45;85.48
6835;BME280;3455;42.150;24.734;2022-12-04T04:17:16;66603.91;;;10.42;86.24
6835;BME280;3455;42.150;24.734;2022-12-04T04:20:04;66614.16;;;10.29;85.65
6835;BME280;3455;42.150;24.734;2022-12-04T04:22:51;66610.84;;;10.48;85.49
6835;BME280;3455;42.150;24.734;2022-12-04T04:25:40;66628.19;;;10.64;84.59
6835;BME280;3455;42.150;24.734;2022-12-04T04:28:29;66580.44;;;10.48;84.98
6835;BME280;3455;42.150;24.734;2022-12-04T04:31:04;66661.06;;;10.52;85.12
6835;BME280;3455;42.150;24.734;2022-12-04T04:33:33;66635.88;;;10.39;84.65
6835;BME280;3455;42.150;24.734;2022-12-04T04:36:07;66633.25;;;10.28;86.35
6835;BME280;3455;42.150;24.734;2022-12-04T04:38:39;66601.16;;;10.44;85.08
6835;BME280;3455;42.150;24.734;2022-12-04T04:41:11;66651.66;;;10.58;84.62
6835;BME280;3455;42.150;24.734;2022-12-04T04:43:47;66593.75;;;10.24;85.58
6835;BME280;3455;42.150;24.734;2022-12-04T04:46:22;66607.09;;;10.36;85.33
6835;BME280;3455;42.150;24.734;2022-12-04T04:48:53;66645.31;;;10.34;84.95
6835;BME280;3455;42.150;24.734;2022-12-04T04:51:22;66657.44;;;10.27;84.84
6835;BME280;3455;42.150;24.734;2022-12-04T04:53:51;66629.97;;;10.47;83.95
6835;BME280;3455;42.150;24.734;2022-12-04T04:56:20;66670.69;;;10.81;83.10
6835;BME280;3455;42.150;24.734;2022-12-04T04:58:47;66678.13;;;10.95;81.43
6835;BME280;3455;42.150;24.734;2022-12-04T05:01:15;66654.53;;;10.78;82.50
6835;BME280;3455;42.150;24.734;2022-12-04T05:03:44;66646.84;;;10.85;82.19
6835;BME280;3455;42.150;24.734;2022-12-04T05:06:11;66638.31;;;10.64;82.23
6835;BME280;3455;42.150;24.734;2022-12-04T05:08:38;66656.16;;;10.57;82.55
6835;BME280;3455;42.150;24.734;2022-12-04T05:11:05;66633.25;;;10.28;84.14
6835;BME280;3455;42.150;24.734;2022-12-04T05:13:32;66597.66;;;10.41;83.80
6835;BME280;3455;42.150;24.734;2022-12-04T05:16:00;66669.19;;;10.60;83.19
6835;BME280;3455;42.150;24.734;2022-12-04T05:18:27;66535.78;;;9.68;85.23
6835;BME280;3455;42.150;24.734;2022-12-04T05:20:56;66661.34;;;10.62;83.57
6835;BME280;3455;42.150;24.734;2022-12-04T05:23:22;66584.09;;;10.02;85.77
6835;BME280;3455;42.150;24.734;2022-12-04T05:25:49;66645.44;;;10.57;83.46
6835;BME280;3455;42.150;24.734;2022-12-04T05:28:16;66605.13;;;10.37;83.59
6835;BME280;3455;42.150;24.734;2022-12-04T05:30:42;66606.72;;;10.51;83.48
6835;BME280;3455;42.150;24.734;2022-12-04T05:33:09;66651.81;;;10.44;83.33
6835;BME280;3455;42.150;24.734;2022-12-04T05:35:36;66579.44;;;9.98;84.75
6835;BME280;3455;42.150;24.734;2022-12-04T05:38:04;66611.34;;;10.56;83.15
6835;BME280;3455;42.150;24.734;2022-12-04T05:40:31;66611.34;;;10.38;83.49
6835;BME280;3455;42.150;24.734;2022-12-04T05:42:57;66631.25;;;10.53;83.26
6835;BME280;3455;42.150;24.734;2022-12-04T05:45:24;66629.22;;;10.42;82.95
6835;BME280;3455;42.150;24.734;2022-12-04T05:47:51;66635.44;;;10.43;83.19
6835;BME280;3455;42.150;24.734;2022-12-04T05:50:18;66642.41;;;10.49;82.99
6835;BME280;3455;42.150;24.734;2022-12-04T05:52:44;66616.91;;;10.27;84.08
6835;BME280;3455;42.150;24.734;2022-12-04T05:55:12;66653.75;;;10.62;82.76
6835;BME280;3455;42.150;24.734;2022-12-04T05:57:39;66616.31;;;10.26;83.13
6835;BME280;3455;42.150;24.734;2022-12-04T06:00:07;66631.25;;;10.35;83.66
6835;BME280;3455;42.150;24.734;2022-12-04T06:02:34;66618.28;;;10.26;83.54
6835;BME280;3455;42.150;24.734;2022-12-04T06:05:01;66640.72;;;10.41;82.67
6835;BME280;3455;42.150;24.734;2022-12-04T06:07:27;66635.03;;;10.47;82.47
6835;BME280;3455;42.150;24.734;2022-12-04T06:09:54;66637.19;;;10.63;82.26
6835;BME280;3455;42.150;24.734;2022-12-04T06:12:22;66588.94;;;10.40;82.79
6835;BME280;3455;42.150;24.734;2022-12-04T06:14:49;66624.00;;;10.20;83.94
6835;BME280;3455;42.150;24.734;2022-12-04T06:17:15;66605.78;;;10.12;84.03
6835;BME280;3455;42.150;24.734;2022-12-04T06:19:42;66619.09;;;10.42;83.21
6835;BME280;3455;42.150;24.734;2022-12-04T06:22:09;66627.44;;;10.47;82.66
6835;BME280;3455;42.150;24.734;2022-12-04T06:24:35;66578.22;;;10.22;83.50
6835;BME280;3455;42.150;24.734;2022-12-04T06:27:02;66621.97;;;10.27;83.67
6835;BME280;3455;42.150;24.734;2022-12-04T06:29:31;66641.91;;;10.42;83.24
6835;BME280;3455;42.150;24.734;2022-12-04T06:31:58;66633.78;;;10.35;82.83
6835;BME280;3455;42.150;24.734;2022-12-04T06:34:25;66670.06;;;10.51;82.73
6835;BME280;3455;42.150;24.734;2022-12-04T06:36:51;66594.63;;;10.52;82.02
6835;BME280;3455;42.150;24.734;2022-12-04T06:39:18;66611.28;;;10.44;81.77
6835;BME280;3455;42.150;24.734;2022-12-04T06:41:45;66628.28;;;10.39;82.48
6835;BME280;3455;42.150;24.734;2022-12-04T06:44:12;66636.75;;;10.67;81.88
6835;BME280;3455;42.150;24.734;2022-12-04T06:46:41;66676.91;;;10.82;80.90
6835;BME280;3455;42.150;24.734;2022-12-04T06:49:09;66688.13;;;11.08;79.63
6835;BME280;3455;42.150;24.734;2022-12-04T06:51:36;66649.91;;;10.74;81.08
6835;BME280;3455;42.150;24.734;2022-12-04T06:54:04;66621.19;;;10.46;81.93
6835;BME280;3455;42.150;24.734;2022-12-04T06:56:32;66676.72;;;10.66;81.40
6835;BME280;3455;42.150;24.734;2022-12-04T06:59:00;66652.38;;;10.63;81.07
6835;BME280;3455;42.150;24.734;2022-12-04T07:01:29;66612.00;;;10.49;81.64
6835;BME280;3455;42.150;24.734;2022-12-04T07:03:58;66618.22;;;10.50;81.71
6835;BME280;3455;42.150;24.734;2022-12-04T07:06:29;66634.75;;;10.38;82.34
6835;BME280;3455;42.150;24.734;2022-12-04T07:08:58;66653.84;;;10.37;82.08
6835;BME280;3455;42.150;24.734;2022-12-04T07:11:25;66635.28;;;10.57;81.27
6835;BME280;3455;42.150;24.734;2022-12-04T07:13:53;66892.69;;;10.42;81.66
6835;BME280;3455;42.150;24.734;2022-12-04T07:16:22;66676.72;;;10.48;81.54
6835;BME280;3455;42.150;24.734;2022-12-04T07:18:49;66603.31;;;10.24;83.04
6835;BME280;3455;42.150;24.734;2022-12-04T07:21:21;66665.00;;;10.51;82.10
6835;BME280;3455;42.150;24.734;2022-12-04T07:23:48;66659.25;;;10.58;81.87
6835;BME280;3455;42.150;24.734;2022-12-04T07:26:16;66616.50;;;10.31;83.00
6835;BME280;3455;42.150;24.734;2022-12-04T07:28:42;66570.63;;;9.86;85.19
6835;BME280;3455;42.150;24.734;2022-12-04T07:31:12;66592.03;;;10.23;84.37
6835;BME280;3455;42.150;24.734;2022-12-04T07:33:40;66607.66;;;10.37;82.81
6835;BME280;3455;42.150;24.734;2022-12-04T07:36:11;66623.44;;;10.37;82.91
6835;BME280;3455;42.150;24.734;2022-12-04T07:38:39;66637.03;;;10.58;82.00
6835;BME280;3455;42.150;24.734;2022-12-04T07:41:07;66643.09;;;10.55;81.93
6835;BME280;3455;42.150;24.734;2022-12-04T07:43:35;66633.78;;;10.35;82.48
6835;BME280;3455;42.150;24.734;2022-12-04T07:46:05;66661.56;;;10.60;82.03
6835;BME280;3455;42.150;24.734;2022-12-04T07:48:32;66604.78;;;10.34;83.22
6835;BME280;3455;42.150;24.734;2022-12-04T07:51:03;66600.06;;;10.19;83.10
6835;BME280;3455;42.150;24.734;2022-12-04T07:53:30;66639.38;;;10.42;82.55
6835;BME280;3455;42.150;24.734;2022-12-04T07:55:58;66695.06;;;11.14;80.97
6835;BME280;3455;42.150;24.734;2022-12-04T07:58:25;66681.00;;;11.15;78.54
6835;BME280;3455;42.150;24.734;2022-12-04T08:00:52;66723.31;;;11.35;77.41
6835;BME280;3455;42.150;24.734;2022-12-04T08:03:19;66688.56;;;11.04;79.58
6835;BME280;3455;42.150;24.734;2022-12-04T08:05:45;66692.00;;;11.25;78.65
6835;BME280;3455;42.150;24.734;2022-12-04T08:08:12;66704.31;;;11.22;78.12
6835;BME280;3455;42.150;24.734;2022-12-04T08:10:39;66701.41;;;11.38;77.72
6835;BME280;3455;42.150;24.734;2022-12-04T08:13:07;66745.91;;;11.37;77.61
6835;BME280;3455;42.150;24.734;2022-12-04T08:15:34;66696.88;;;11.09;78.59
6835;BME280;3455;42.150;24.734;2022-12-04T08:18:01;66688.13;;;11.08;79.20
6835;BME280;3455;42.150;24.734;2022-12-04T08:20:27;66699.91;;;11.16;78.60
6835;BME280;3455;42.150;24.734;2022-12-04T08:22:54;66735.03;;;11.32;77.65
6835;BME280;3455;42.150;24.734;2022-12-04T08:25:21;66714.75;;;11.32;77.91
6835;BME280;3455;42.150;24.734;2022-12-04T08:31:05;66721.22;;;11.30;78.62
6835;BME280;3455;42.150;24.734;2022-12-04T08:33:33;66666.25;;;10.93;79.72
6835;BME280;3455;42.150;24.734;2022-12-04T08:35:59;66691.25;;;11.38;78.26
6835;BME280;3455;42.150;24.734;2022-12-04T08:38:26;66752.16;;;11.67;77.33
6835;BME280;3455;42.150;24.734;2022-12-04T08:40:53;66742.84;;;11.47;77.22
6835;BME280;3455;42.150;24.734;2022-12-04T08:43:20;66690.91;;;11.35;78.28
6835;BME280;3455;42.150;24.734;2022-12-04T08:45:54;66741.66;;;11.64;77.39
6835;BME280;3455;42.150;24.734;2022-12-04T08:48:22;66738.75;;;11.62;77.09
6835;BME280;3455;42.150;24.734;2022-12-04T08:50:49;66762.81;;;11.74;76.78
6835;BME280;3455;42.150;24.734;2022-12-04T08:53:15;66791.06;;;12.13;74.62
6835;BME280;3455;42.150;24.734;2022-12-04T08:55:42;66746.28;;;11.68;76.01
6835;BME280;3455;42.150;24.734;2022-12-04T08:58:09;66791.72;;;12.06;74.93
6835;BME280;3455;42.150;24.734;2022-12-04T09:00:36;66793.03;;;12.41;73.80
6835;BME280;3455;42.150;24.734;2022-12-04T09:03:04;66737.41;;;11.92;74.73
6835;BME280;3455;42.150;24.734;2022-12-04T09:05:32;66780.50;;;11.81;75.26
6835;BME280;3455;42.150;24.734;2022-12-04T09:07:59;66710.78;;;11.50;76.08
6835;BME280;3455;42.150;24.734;2022-12-04T09:10:26;66730.53;;;11.50;76.24
6835;BME280;3455;42.150;24.734;2022-12-04T09:12:53;66726.06;;;11.33;76.92
6835;BME280;3455;42.150;24.734;2022-12-04T09:15:19;66738.97;;;11.30;77.12
6835;BME280;3455;42.150;24.734;2022-12-04T09:17:46;66759.72;;;11.56;76.21
6835;BME280;3455;42.150;24.734;2022-12-04T09:20:13;66714.09;;;11.67;76.13
6835;BME280;3455;42.150;24.734;2022-12-04T09:22:41;66739.53;;;11.49;76.54
6835;BME280;3455;42.150;24.734;2022-12-04T09:25:08;66742.69;;;11.61;76.50
6835;BME280;3455;42.150;24.734;2022-12-04T09:27:37;66729.91;;;11.67;76.08
6835;BME280;3455;42.150;24.734;2022-12-04T09:30:07;66731.06;;;11.68;76.03
6835;BME280;3455;42.150;24.734;2022-12-04T09:32:34;66777.59;;;11.78;75.83
6835;BME280;3455;42.150;24.734;2022-12-04T09:35:01;66777.56;;;11.67;75.46
6835;BME280;3455;42.150;24.734;2022-12-04T09:37:28;66790.31;;;11.96;74.70
6835;BME280;3455;42.150;24.734;2022-12-04T09:39:56;66784.72;;;11.89;74.65
6835;BME280;3455;42.150;24.734;2022-12-04T09:42:31;66740.28;;;11.65;75.94
6835;BME280;3455;42.150;24.734;2022-12-04T09:45:09;66685.22;;;11.05;77.88
6835;BME280;3455;42.150;24.734;2022-12-04T09:47:39;66696.94;;;11.20;78.46
6835;BME280;3455;42.150;24.734;2022-12-04T09:50:12;66676.69;;;11.02;78.46
6835;BME280;3455;42.150;24.734;2022-12-04T09:52:48;66655.91;;;10.95;78.64
6835;BME280;3455;42.150;24.734;2022-12-04T09:55:20;66668.56;;;10.77;79.38
6835;BME280;3455;42.150;24.734;2022-12-04T09:57:50;66745.28;;;11.07;78.52
6835;BME280;3455;42.150;24.734;2022-12-04T10:00:19;66624.84;;;10.83;79.13
6835;BME280;3455;42.150;24.734;2022-12-04T10:02:49;66635.56;;;10.66;79.92
6835;BME280;3455;42.150;24.734;2022-12-04T10:05:19;66696.53;;;11.06;78.92
6835;BME280;3455;42.150;24.734;2022-12-04T10:07:58;66687.44;;;11.14;78.44
6835;BME280;3455;42.150;24.734;2022-12-04T10:10:36;66688.41;;;11.17;77.77
6835;BME280;3455;42.150;24.734;2022-12-04T10:13:20;66666.81;;;11.12;77.54
6835;BME280;3455;42.150;24.734;2022-12-04T10:15:55;66689.44;;;10.96;77.97
6835;BME280;3455;42.150;24.734;2022-12-04T10:18:38;66653.94;;;10.96;78.04
6835;BME280;3455;42.150;24.734;2022-12-04T10:21:30;66697.38;;;11.16;78.13
6835;BME280;3455;42.150;24.734;2022-12-04T10:24:10;66763.44;;;11.39;77.93
6835;BME280;3455;42.150;24.734;2022-12-04T10:26:44;66746.25;;;11.57;76.62
6835;BME280;3455;42.150;24.734;2022-12-04T10:29:17;66710.69;;;11.28;76.80
6835;BME280;3455;42.150;24.734;2022-12-04T10:31:46;66713.59;;;11.30;77.29
6835;BME280;3455;42.150;24.734;2022-12-04T10:34:15;66727.81;;;11.34;76.72
6835;BME280;3455;42.150;24.734;2022-12-04T10:36:48;66720.81;;;11.46;76.22
6835;BME280;3455;42.150;24.734;2022-12-04T10:39:19;66722.13;;;11.34;76.25
6835;BME280;3455;42.150;24.734;2022-12-04T10:41:53;66689.81;;;11.27;76.67
6835;BME280;3455;42.150;24.734;2022-12-04T10:44:23;66681.88;;;11.25;76.56
6835;BME280;3455;42.150;24.734;2022-12-04T10:46:53;66707.75;;;11.14;76.61
6835;BME280;3455;42.150;24.734;2022-12-04T10:49:23;66718.16;;;11.23;76.54
6835;BME280;3455;42.150;24.734;2022-12-04T10:51:54;66718.63;;;11.48;75.58
6835;BME280;3455;42.150;24.734;2022-12-04T10:54:26;66692.97;;;11.10;76.86
6835;BME280;3455;42.150;24.734;2022-12-04T10:57:00;66691.22;;;11.26;76.57
6835;BME280;3455;42.150;24.734;2022-12-04T10:59:32;66710.56;;;11.23;76.19
6835;BME280;3455;42.150;24.734;2022-12-04T11:02:18;66742.59;;;11.20;76.31
6835;BME280;3455;42.150;24.734;2022-12-04T11:04:51;66756.19;;;11.59;75.63
6835;BME280;3455;42.150;24.734;2022-12-04T11:07:22;66709.66;;;11.32;75.79
6835;BME280;3455;42.150;24.734;2022-12-04T11:09:55;66724.44;;;11.36;75.75
6835;BME280;3455;42.150;24.734;2022-12-04T11:12:25;66681.47;;;10.93;77.80
6835;BME280;3455;42.150;24.734;2022-12-04T11:15:11;66634.28;;;10.42;79.24
6835;BME280;3455;42.150;24.734;2022-12-04T11:17:40;66659.59;;;10.78;78.39
6835;BME280;3455;42.150;24.734;2022-12-04T11:20:15;66605.75;;;10.66;79.06
6835;BME280;3455;42.150;24.734;2022-12-04T11:22:49;66683.16;;;11.30;77.34
6835;BME280;3455;42.150;24.734;2022-12-04T11:25:18;66744.19;;;11.17;78.01
6835;BME280;3455;42.150;24.734;2022-12-04T11:27:48;66672.41;;;11.30;77.10
6835;BME280;3455;42.150;24.734;2022-12-04T11:30:21;66695.28;;;11.41;77.40
6835;BME280;3455;42.150;24.734;2022-12-04T11:32:51;66714.47;;;11.22;77.33
6835;BME280;3455;42.150;24.734;2022-12-04T11:35:21;66680.72;;;11.06;77.97
6835;BME280;3455;42.150;24.734;2022-12-04T11:37:53;66720.25;;;11.27;77.22
6835;BME280;3455;42.150;24.734;2022-12-04T11:40:21;66678.41;;;11.04;76.98
6835;BME280;3455;42.150;24.734;2022-12-04T11:43:05;66665.03;;;10.99;77.49
6835;BME280;3455;42.150;24.734;2022-12-04T11:45:38;66666.94;;;11.16;76.94
6835;BME280;3455;42.150;24.734;2022-12-04T11:48:14;66654.53;;;10.78;78.45
6835;BME280;3455;42.150;24.734;2022-12-04T11:50:46;66681.75;;;10.84;78.22
6835;BME280;3455;42.150;24.734;2022-12-04T11:53:19;66705.19;;;11.14;78.00
6835;BME280;3455;42.150;24.734;2022-12-04T11:56:01;66692.22;;;11.52;76.22
6835;BME280;3455;42.150;24.734;2022-12-04T11:58:45;66741.34;;;11.44;76.14
6835;BME280;3455;42.150;24.734;2022-12-04T12:01:25;66708.97;;;11.26;75.95
6835;BME280;3455;42.150;24.734;2022-12-04T12:04:12;66668.28;;;11.04;77.00
6835;BME280;3455;42.150;24.734;2022-12-04T12:06:54;66701.44;;;11.02;77.42
6835;BME280;3455;42.150;24.734;2022-12-04T12:09:33;66676.38;;;11.11;78.09
6835;BME280;3455;42.150;24.734;2022-12-04T12:12:05;66710.88;;;10.97;78.58
6835;BME280;3455;42.150;24.734;2022-12-04T12:14:42;66603.13;;;10.73;79.03
6835;BME280;3455;42.150;24.734;2022-12-04T12:17:19;66643.50;;;10.86;79.38
6835;BME280;3455;42.150;24.734;2022-12-04T12:20:12;66673.88;;;10.75;80.16
6835;BME280;3455;42.150;24.734;2022-12-04T12:23:05;66631.66;;;10.67;79.93
6835;BME280;3455;42.150;24.734;2022-12-04T12:25:45;66674.38;;;10.82;79.17
6835;BME280;3455;42.150;24.734;2022-12-04T12:28:25;66764.19;;;10.72;79.29
6835;BME280;3455;42.150;24.734;2022-12-04T12:31:11;66672.06;;;10.62;79.85
6835;BME280;3455;42.150;24.734;2022-12-04T12:33:44;66627.75;;;10.68;80.39
6835;BME280;3455;42.150;24.734;2022-12-04T12:36:14;66681.19;;;10.66;79.69
6835;BME280;3455;42.150;24.734;2022-12-04T12:38:45;66701.44;;;11.02;78.46
6835;BME280;3455;42.150;24.734;2022-12-04T12:41:15;66685.44;;;11.03;77.37
6835;BME280;3455;42.150;24.734;2022-12-04T12:43:47;66683.91;;;11.00;77.64
6835;BME280;3455;42.150;24.734;2022-12-04T12:46:25;66694.78;;;11.05;77.26
6835;BME280;3455;42.150;24.734;2022-12-04T12:49:00;66698.25;;;11.08;77.15
6835;BME280;3455;42.150;24.734;2022-12-04T12:51:32;66708.56;;;10.95;77.18
6835;BME280;3455;42.150;24.734;2022-12-04T12:54:12;66722.28;;;11.20;75.76
6835;BME280;3455;42.150;24.734;2022-12-04T12:56:45;66695.94;;;11.06;76.75
6835;BME280;3455;42.150;24.734;2022-12-04T12:59:19;66725.34;;;11.27;75.16
6835;BME280;3455;42.150;24.734;2022-12-04T13:01:51;66698.97;;;11.13;75.49
6835;BME280;3455;42.150;24.734;2022-12-04T13:04:24;66795.22;;;11.26;75.53
6835;BME280;3455;42.150;24.734;2022-12-04T13:07:03;66701.84;;;11.34;74.99
6835;BME280;3455;42.150;24.734;2022-12-04T13:09:36;66638.88;;;10.82;74.58
6835;BME280;3455;42.150;24.734;2022-12-04T13:12:10;66670.88;;;11.15;74.56
6835;BME280;3455;42.150;24.734;2022-12-04T13:14:38;66680.53;;;10.90;74.43
6835;BME280;3455;42.150;24.734;2022-12-04T13:17:13;66685.34;;;11.10;73.47
6835;BME280;3455;42.150;24.734;2022-12-04T13:19:44;66669.69;;;11.14;73.11
6835;BME280;3455;42.150;24.734;2022-12-04T13:22:17;66726.34;;;11.42;72.16
6835;BME280;3455;42.150;24.734;2022-12-04T13:25:02;66688.13;;;11.08;73.34
6835;BME280;3455;42.150;24.734;2022-12-04T13:27:39;66683.19;;;11.13;73.17
6835;BME280;3455;42.150;24.734;2022-12-04T13:30:14;66772.72;;;11.47;71.81
6835;BME280;3455;42.150;24.734;2022-12-04T13:33:06;66716.88;;;11.47;71.12